createdAt,value
2018-05-09T00:00:55.015Z,58.03
2018-05-09T00:01:55.196Z,58.61
2018-05-09T00:02:55.025Z,58.03
2018-05-09T00:03:55.018Z,58.61
2018-05-09T00:04:55.032Z,58.51
2018-05-09T00:05:55.032Z,58.80
2018-05-09T00:06:55.033Z,58.42
2018-05-09T00:07:55.049Z,58.51
2018-05-09T00:08:55.952Z,58.51
2018-05-09T00:09:55.054Z,58.51
2018-05-09T00:10:55.063Z,59.57
2018-05-09T00:11:55.134Z,59.19
2018-05-09T00:12:55.079Z,59.06
2018-05-09T00:13:55.074Z,59.19
2018-05-09T00:14:55.079Z,59.28
2018-05-09T00:15:55.171Z,59.44
2018-05-09T00:16:55.089Z,59.44
2018-05-09T00:17:55.106Z,59.16
2018-05-09T00:18:55.099Z,58.39
2018-05-09T00:19:55.103Z,58.67
2018-05-09T00:20:56.622Z,58.42
2018-05-09T00:21:56.698Z,58.51
2018-05-09T00:22:56.687Z,58.80
2018-05-09T00:23:55.118Z,58.39
2018-05-09T00:24:55.125Z,58.58
2018-05-09T00:25:55.124Z,59.47
2018-05-09T00:26:55.136Z,58.58
2018-05-09T00:27:55.131Z,58.67
2018-05-09T00:28:55.140Z,58.67
2018-05-09T00:29:55.216Z,58.48
2018-05-09T00:30:55.147Z,58.61
2018-05-09T00:31:55.159Z,59.44
2018-05-09T00:32:55.163Z,58.96
2018-05-09T00:33:55.163Z,58.96
2018-05-09T00:34:55.175Z,59.06
2018-05-09T00:35:55.172Z,59.64
2018-05-09T00:36:55.182Z,59.54
2018-05-09T00:37:55.193Z,59.64
2018-05-09T00:38:55.196Z,59.64
2018-05-09T00:39:55.193Z,59.64
2018-05-09T00:40:55.211Z,59.54
2018-05-09T00:41:55.211Z,59.34
2018-05-09T00:42:55.209Z,59.44
2018-05-09T00:43:55.221Z,59.73
2018-05-09T00:44:55.223Z,60.31
2018-05-09T00:45:55.226Z,60.50
2018-05-09T00:46:55.231Z,60.21
2018-05-09T00:47:55.234Z,60.40
2018-05-09T00:48:55.243Z,59.83
2018-05-09T00:49:55.250Z,59.16
2018-05-09T00:50:55.258Z,59.25
2018-05-09T00:51:55.256Z,59.34
2018-05-09T00:52:55.255Z,59.54
2018-05-09T00:53:55.268Z,60.31
2018-05-09T00:54:55.268Z,60.40
2018-05-09T00:55:55.280Z,60.31
2018-05-09T00:56:55.282Z,60.69
2018-05-09T00:57:55.279Z,60.78
2018-05-09T00:58:55.291Z,60.78
2018-05-09T00:59:55.291Z,60.75
2018-05-09T01:00:55.299Z,60.66
2018-05-09T01:01:55.298Z,60.57
2018-05-09T01:02:55.306Z,61.24
2018-05-09T01:03:55.313Z,61.05
2018-05-09T01:04:55.317Z,61.14
2018-05-09T01:05:55.318Z,61.62
2018-05-09T01:06:55.331Z,62.39
2018-05-09T01:07:55.347Z,62.01
2018-05-09T01:08:55.342Z,62.19
2018-05-09T01:09:55.335Z,61.81
2018-05-09T01:10:55.341Z,62.01
2018-05-09T01:11:55.350Z,62.01
2018-05-09T01:12:55.356Z,62.01
2018-05-09T01:13:56.970Z,62.10
2018-05-09T01:14:55.361Z,62.39
2018-05-09T01:15:55.365Z,62.39
2018-05-09T01:16:55.370Z,62.19
2018-05-09T01:17:55.379Z,61.81
2018-05-09T01:18:55.376Z,61.91
2018-05-09T01:19:55.385Z,62.01
2018-05-09T01:20:55.386Z,61.81
2018-05-09T01:21:55.394Z,62.39
2018-05-09T01:22:55.392Z,62.01
2018-05-09T01:23:55.397Z,62.58
2018-05-09T01:24:55.405Z,62.77
2018-05-09T01:25:55.405Z,62.68
2018-05-09T01:26:55.415Z,63.25
2018-05-09T01:27:55.421Z,62.93
2018-05-09T01:28:55.420Z,62.96
2018-05-09T01:29:55.427Z,62.74
2018-05-09T01:30:55.434Z,62.74
2018-05-09T01:31:55.436Z,62.84
2018-05-09T01:32:55.442Z,62.84
2018-05-09T01:33:55.444Z,63.03
2018-05-09T01:34:55.454Z,63.22
2018-05-09T01:35:55.461Z,63.32
2018-05-09T01:36:55.458Z,63.03
2018-05-09T01:37:55.464Z,63.32
2018-05-09T01:38:55.467Z,63.60
2018-05-09T01:39:55.470Z,63.60
2018-05-09T01:40:55.482Z,63.79
2018-05-09T01:41:55.480Z,63.99
2018-05-09T01:42:55.484Z,64.18
2018-05-09T01:43:55.489Z,63.99
2018-05-09T01:44:55.496Z,63.70
2018-05-09T01:45:55.496Z,63.99
2018-05-09T01:46:55.504Z,64.37
2018-05-09T01:47:55.510Z,64.37
2018-05-09T01:48:55.515Z,64.28
2018-05-09T01:49:55.511Z,64.28
2018-05-09T01:50:55.518Z,64.28
2018-05-09T01:51:55.520Z,64.82
2018-05-09T01:52:55.527Z,65.05
2018-05-09T01:53:55.532Z,64.63
2018-05-09T01:54:55.602Z,65.49
2018-05-09T01:55:55.546Z,65.59
2018-05-09T01:56:55.543Z,65.11
2018-05-09T01:57:55.558Z,65.68
2018-05-09T01:58:55.557Z,65.78
2018-05-09T01:59:55.565Z,65.68
2018-05-09T02:00:55.565Z,65.78
2018-05-09T02:01:55.561Z,66.26
2018-05-09T02:02:55.573Z,66.35
2018-05-09T02:03:55.569Z,66.16
2018-05-09T02:04:55.581Z,66.35
2018-05-09T02:05:55.575Z,66.93
2018-05-09T02:06:55.585Z,66.93
2018-05-09T02:07:55.590Z,66.74
2018-05-09T02:08:55.597Z,67.09
2018-05-09T02:09:55.604Z,66.89
2018-05-09T02:10:55.610Z,66.99
2018-05-09T02:11:55.614Z,67.09
2018-05-09T02:12:55.612Z,67.57
2018-05-09T02:13:55.614Z,67.38
2018-05-09T02:14:55.622Z,67.66
2018-05-09T02:15:55.616Z,67.57
2018-05-09T02:16:55.627Z,68.14
2018-05-09T02:17:55.629Z,67.47
2018-05-09T02:18:55.632Z,67.47
2018-05-09T02:19:55.645Z,67.47
2018-05-09T02:20:55.640Z,67.57
2018-05-09T02:21:55.652Z,68.05
2018-05-09T02:22:55.675Z,68.05
2018-05-09T02:23:55.654Z,67.38
2018-05-09T02:24:55.656Z,67.89
2018-05-09T02:25:55.713Z,67.76
2018-05-09T02:26:55.681Z,67.76
2018-05-09T02:27:55.669Z,68.08
2018-05-09T02:28:55.682Z,67.89
2018-05-09T02:29:55.681Z,68.08
2018-05-09T02:30:55.700Z,67.50
2018-05-09T02:31:55.695Z,67.50
2018-05-09T02:32:55.693Z,67.22
2018-05-09T02:33:55.702Z,67.32
2018-05-09T02:34:55.710Z,67.41
2018-05-09T02:35:55.702Z,67.79
2018-05-09T02:36:55.710Z,67.41
2018-05-09T02:37:55.713Z,67.89
2018-05-09T02:38:55.720Z,67.99
2018-05-09T02:39:55.716Z,67.95
2018-05-09T02:40:55.719Z,67.76
2018-05-09T02:41:55.728Z,68.43
2018-05-09T02:42:55.728Z,68.62
2018-05-09T02:43:55.739Z,68.33
2018-05-09T02:44:55.737Z,68.43
2018-05-09T02:45:55.745Z,68.52
2018-05-09T02:46:55.746Z,68.81
2018-05-09T02:47:55.755Z,68.72
2018-05-09T02:48:55.758Z,68.81
2018-05-09T02:49:55.858Z,69.10
2018-05-09T02:50:55.781Z,68.43
2018-05-09T02:51:55.771Z,68.91
2018-05-09T02:52:55.798Z,68.43
2018-05-09T02:53:55.777Z,69.01
2018-05-09T02:54:55.872Z,68.81
2018-05-09T02:55:55.784Z,68.72
2018-05-09T02:56:55.807Z,68.91
2018-05-09T02:57:55.817Z,69.10
2018-05-09T02:58:55.799Z,69.39
2018-05-09T02:59:55.802Z,69.29
2018-05-09T03:00:55.823Z,69.77
2018-05-09T03:01:55.807Z,70.15
2018-05-09T03:02:55.813Z,70.06
2018-05-09T03:03:55.815Z,70.73
2018-05-09T03:04:55.825Z,70.31
2018-05-09T03:05:55.824Z,70.89
2018-05-09T03:06:55.836Z,71.17
2018-05-09T03:07:55.829Z,70.79
2018-05-09T03:08:55.839Z,70.79
2018-05-09T03:09:55.842Z,71.27
2018-05-09T03:10:55.850Z,70.79
2018-05-09T03:11:55.850Z,70.70
2018-05-09T03:12:55.848Z,70.89
2018-05-09T03:13:55.853Z,70.44
2018-05-09T03:14:55.863Z,70.64
2018-05-09T03:15:55.865Z,70.25
2018-05-09T03:16:55.889Z,70.25
2018-05-09T03:17:55.872Z,70.83
2018-05-09T03:18:55.878Z,70.92
2018-05-09T03:19:55.880Z,70.98
2018-05-09T03:20:55.914Z,70.98
2018-05-09T03:21:55.913Z,70.89
2018-05-09T03:22:55.888Z,71.08
2018-05-09T03:23:55.889Z,71.08
2018-05-09T03:24:55.890Z,71.08
2018-05-09T03:25:55.898Z,70.83
2018-05-09T03:26:55.911Z,71.31
2018-05-09T03:27:55.915Z,70.98
2018-05-09T03:28:55.910Z,70.98
2018-05-09T03:29:55.916Z,70.83
2018-05-09T03:30:55.916Z,71.02
2018-05-09T03:31:55.924Z,71.02
2018-05-09T03:32:55.927Z,70.89
2018-05-09T03:33:55.929Z,71.11
2018-05-09T03:34:55.928Z,71.02
2018-05-09T03:35:55.940Z,71.17
2018-05-09T03:36:55.941Z,70.89
2018-05-09T03:37:55.949Z,71.08
2018-05-09T03:38:55.955Z,71.37
2018-05-09T03:39:55.951Z,71.56
2018-05-09T03:40:56.505Z,71.75
2018-05-09T03:41:55.962Z,71.75
2018-05-09T03:42:55.963Z,71.56
2018-05-09T03:43:55.967Z,71.75
2018-05-09T03:44:55.969Z,71.27
2018-05-09T03:45:55.972Z,71.84
2018-05-09T03:46:55.975Z,72.03
2018-05-09T03:47:55.987Z,72.23
2018-05-09T03:48:55.993Z,71.94
2018-05-09T03:49:55.991Z,72.42
2018-05-09T03:50:56.000Z,71.56
2018-05-09T03:51:55.993Z,71.94
2018-05-09T03:52:56.000Z,71.37
2018-05-09T03:53:56.010Z,71.94
2018-05-09T03:54:56.004Z,72.42
2018-05-09T03:55:56.020Z,72.42
2018-05-09T03:56:56.018Z,72.13
2018-05-09T03:57:56.022Z,72.03
2018-05-09T03:58:56.024Z,72.03
2018-05-09T03:59:56.031Z,72.13
2018-05-09T04:00:56.040Z,72.03
2018-05-09T04:01:56.038Z,71.84
2018-05-09T04:02:56.424Z,72.23
2018-05-09T04:03:57.188Z,72.42
2018-05-09T04:04:56.058Z,72.52
2018-05-09T04:05:56.059Z,72.61
2018-05-09T04:06:56.057Z,72.80
2018-05-09T04:07:56.076Z,72.71
2018-05-09T04:08:56.063Z,72.61
2018-05-09T04:09:56.070Z,72.61
2018-05-09T04:10:56.078Z,72.71
2018-05-09T04:11:56.086Z,72.52
2018-05-09T04:12:56.093Z,72.80
2018-05-09T04:13:56.086Z,73.09
2018-05-09T04:14:56.160Z,73.28
2018-05-09T04:15:56.096Z,72.61
2018-05-09T04:16:56.094Z,72.99
2018-05-09T04:17:56.096Z,73.09
2018-05-09T04:18:56.097Z,72.61
2018-05-09T04:19:56.108Z,72.61
2018-05-09T04:20:56.171Z,72.61
2018-05-09T04:21:56.106Z,72.71
2018-05-09T04:22:56.113Z,73.03
2018-05-09T04:23:56.120Z,72.45
2018-05-09T04:24:56.131Z,72.27
2018-05-09T04:25:56.126Z,72.07
2018-05-09T04:26:56.133Z,71.88
2018-05-09T04:27:56.140Z,72.17
2018-05-09T04:28:56.152Z,71.88
2018-05-09T04:29:56.140Z,71.50
2018-05-09T04:30:56.147Z,71.88
2018-05-09T04:31:56.154Z,71.11
2018-05-09T04:32:56.152Z,70.73
2018-05-09T04:33:56.152Z,71.11
2018-05-09T04:34:56.158Z,71.02
2018-05-09T04:35:56.166Z,71.25
2018-05-09T04:36:56.172Z,70.25
2018-05-09T04:37:56.180Z,70.35
2018-05-09T04:38:56.176Z,70.64
2018-05-09T04:39:56.182Z,70.35
2018-05-09T04:40:56.190Z,70.54
2018-05-09T04:41:56.258Z,71.02
2018-05-09T04:42:56.192Z,71.21
2018-05-09T04:43:56.198Z,71.21
2018-05-09T04:44:56.203Z,71.02
2018-05-09T04:45:56.204Z,70.73
2018-05-09T04:46:56.204Z,71.21
2018-05-09T04:47:56.215Z,71.02
2018-05-09T04:48:56.224Z,71.40
2018-05-09T04:49:56.215Z,71.21
2018-05-09T04:50:56.229Z,71.11
2018-05-09T04:51:56.225Z,71.02
2018-05-09T04:52:56.229Z,70.86
2018-05-09T04:53:56.235Z,71.25
2018-05-09T04:54:56.280Z,70.86
2018-05-09T04:55:56.242Z,70.48
2018-05-09T04:56:56.255Z,70.48
2018-05-09T04:57:56.253Z,70.48
2018-05-09T04:58:56.279Z,70.29
2018-05-09T04:59:56.263Z,70.48
2018-05-09T05:00:56.286Z,70.48
2018-05-09T05:01:56.279Z,70.57
2018-05-09T05:02:56.275Z,70.19
2018-05-09T05:03:56.273Z,70.29
2018-05-09T05:04:56.345Z,70.38
2018-05-09T05:05:56.319Z,69.90
2018-05-09T05:06:56.513Z,70.29
2018-05-09T05:07:56.293Z,70.00
2018-05-09T05:08:56.304Z,69.90
2018-05-09T05:09:56.302Z,69.93
2018-05-09T05:10:56.308Z,69.93
2018-05-09T05:11:56.331Z,69.17
2018-05-09T05:12:56.315Z,69.26
2018-05-09T05:13:56.326Z,69.17
2018-05-09T05:14:56.411Z,68.98
2018-05-09T05:15:56.339Z,68.50
2018-05-09T05:16:56.332Z,68.50
2018-05-09T05:17:56.344Z,68.69
2018-05-09T05:18:56.339Z,68.59
2018-05-09T05:19:56.350Z,67.92
2018-05-09T05:20:56.355Z,67.96
2018-05-09T05:21:56.350Z,67.76
2018-05-09T05:22:56.370Z,67.86
2018-05-09T05:23:56.363Z,67.29
2018-05-09T05:24:56.376Z,66.90
2018-05-09T05:25:56.367Z,66.52
2018-05-09T05:26:56.379Z,66.23
2018-05-09T05:27:56.386Z,66.13
2018-05-09T05:28:56.391Z,65.69
2018-05-09T05:29:56.385Z,63.89
2018-05-09T05:30:56.399Z,61.19
2018-05-09T05:31:56.399Z,56.95
2018-05-09T05:32:56.413Z,54.33
2018-05-09T05:33:56.412Z,52.07
2018-05-09T05:34:56.420Z,49.87
2018-05-09T05:35:56.420Z,48.44
2018-05-09T05:36:56.428Z,47.50
2018-05-09T05:37:56.439Z,46.17
2018-05-09T05:38:56.550Z,44.37
2018-05-09T05:39:56.453Z,43.72
2018-05-09T05:40:56.455Z,42.86
2018-05-09T05:41:56.462Z,41.53
2018-05-09T05:42:56.474Z,40.77
2018-05-09T05:43:56.492Z,40.29
2018-05-09T05:44:56.515Z,39.69
2018-05-09T05:45:56.495Z,40.66
2018-05-09T05:46:56.510Z,40.77
2018-05-09T05:47:56.516Z,40.31
2018-05-09T05:48:56.526Z,39.62
2018-05-09T05:49:56.531Z,39.16
2018-05-09T05:50:56.547Z,38.39
2018-05-09T05:51:56.608Z,38.03
2018-05-09T05:52:56.626Z,37.06
2018-05-09T05:53:56.578Z,37.34
2018-05-09T05:54:56.748Z,37.45
2018-05-09T05:55:56.678Z,36.88
2018-05-09T05:56:56.646Z,35.93
2018-05-09T05:57:56.634Z,35.05
2018-05-09T05:58:56.645Z,34.78
2018-05-09T05:59:56.648Z,34.39
2018-05-09T06:00:56.662Z,34.59
2018-05-09T06:01:56.679Z,33.54
2018-05-09T06:02:56.697Z,33.73
2018-05-09T06:03:56.699Z,33.73
2018-05-09T06:04:56.716Z,33.73
2018-05-09T06:05:56.738Z,33.44
2018-05-09T06:06:56.740Z,33.44
2018-05-09T06:07:56.802Z,33.82
2018-05-09T06:08:56.767Z,33.25
2018-05-09T06:09:56.790Z,32.97
2018-05-09T06:10:56.809Z,32.89
2018-05-09T06:11:56.813Z,32.42
2018-05-09T06:12:56.849Z,31.36
2018-05-09T06:13:56.845Z,31.26
2018-05-09T06:14:56.893Z,30.79
2018-05-09T06:15:56.892Z,30.41
2018-05-09T06:16:56.989Z,29.35
2018-05-09T06:17:56.905Z,29.07
2018-05-09T06:18:56.927Z,28.97
2018-05-09T06:19:56.940Z,27.91
2018-05-09T06:20:56.952Z,28.02
2018-05-09T06:21:56.979Z,27.83
2018-05-09T06:22:56.989Z,27.53
2018-05-09T06:23:57.109Z,27.73
2018-05-09T06:24:57.031Z,27.45
2018-05-09T06:25:57.049Z,26.86
2018-05-09T06:26:57.065Z,26.69
2018-05-09T06:27:57.070Z,26.27
2018-05-09T06:28:57.096Z,26.76
2018-05-09T06:29:57.111Z,26.67
2018-05-09T06:30:57.195Z,26.86
2018-05-09T06:31:57.153Z,26.78
2018-05-09T06:32:57.162Z,26.58
2018-05-09T06:33:57.192Z,26.38
2018-05-09T06:34:57.199Z,26.38
2018-05-09T06:35:58.065Z,26.46
2018-05-09T06:36:57.399Z,26.76
2018-05-09T06:37:57.272Z,26.58
2018-05-09T06:38:57.282Z,26.68
2018-05-09T06:39:57.336Z,26.59
2018-05-09T06:40:57.315Z,26.50
2018-05-09T06:41:57.376Z,26.20
2018-05-09T06:42:57.384Z,26.31
2018-05-09T06:43:57.367Z,26.41
2018-05-09T06:44:57.381Z,25.82
2018-05-09T06:45:57.403Z,26.46
2018-05-09T06:46:57.426Z,26.95
2018-05-09T06:47:57.433Z,27.62
2018-05-09T06:48:57.451Z,28.11
2018-05-09T06:49:57.484Z,28.40
2018-05-09T06:50:57.494Z,27.92
2018-05-09T06:51:57.507Z,27.84
2018-05-09T06:52:57.586Z,27.17
2018-05-09T06:53:57.569Z,27.29
2018-05-09T06:54:57.572Z,26.14
2018-05-09T06:55:57.691Z,24.97
2018-05-09T06:56:57.631Z,25.28
2018-05-09T06:57:57.629Z,25.17
2018-05-09T06:58:57.700Z,25.07
2018-05-09T06:59:57.731Z,25.07
2018-05-09T07:00:57.690Z,24.59
2018-05-09T07:01:57.725Z,24.69
2018-05-09T07:02:57.721Z,24.59
2018-05-09T07:03:57.750Z,24.76
2018-05-09T07:04:57.774Z,25.73
2018-05-09T07:05:57.782Z,25.83
2018-05-09T07:06:57.810Z,25.84
2018-05-09T07:07:57.841Z,25.05
2018-05-09T07:08:57.854Z,24.79
2018-05-09T07:09:57.872Z,24.59
2018-05-09T07:10:57.897Z,24.60
2018-05-09T07:11:57.912Z,24.21
2018-05-09T07:12:57.927Z,24.11
2018-05-09T07:13:57.950Z,24.19
2018-05-09T07:14:57.975Z,24.29
2018-05-09T07:15:58.047Z,24.19
2018-05-09T07:16:58.126Z,23.71
2018-05-09T07:17:58.042Z,24.19
2018-05-09T07:18:58.059Z,24.00
2018-05-09T07:19:59.006Z,24.21
2018-05-09T07:20:58.168Z,23.72
2018-05-09T07:21:58.172Z,24.30
2018-05-09T07:22:58.174Z,24.51
2018-05-09T07:23:58.172Z,23.91
2018-05-09T07:24:58.195Z,23.52
2018-05-09T07:25:58.213Z,23.82
2018-05-09T07:26:58.237Z,23.83
2018-05-09T07:27:58.250Z,23.83
2018-05-09T07:28:58.272Z,23.63
2018-05-09T07:29:58.302Z,23.74
2018-05-09T07:30:58.324Z,23.64
2018-05-09T07:31:58.341Z,23.17
2018-05-09T07:32:58.362Z,22.78
2018-05-09T07:33:58.385Z,22.30
2018-05-09T07:34:58.406Z,22.39
2018-05-09T07:35:58.492Z,22.39
2018-05-09T07:36:58.452Z,22.49
2018-05-09T07:37:58.495Z,21.80
2018-05-09T07:38:58.539Z,22.49
2018-05-09T07:39:58.528Z,22.58
2018-05-09T07:40:58.547Z,23.06
2018-05-09T07:41:58.559Z,23.16
2018-05-09T07:42:58.584Z,22.95
2018-05-09T07:43:58.602Z,22.95
2018-05-09T07:44:58.634Z,23.55
2018-05-09T07:45:58.663Z,23.37
2018-05-09T07:46:58.671Z,22.59
2018-05-09T07:47:58.727Z,21.69
2018-05-09T07:48:58.729Z,21.80
2018-05-09T07:49:58.743Z,21.70
2018-05-09T07:50:58.770Z,21.80
2018-05-09T07:51:58.791Z,22.26
2018-05-09T07:52:58.816Z,22.85
2018-05-09T07:53:58.837Z,23.53
2018-05-09T07:54:58.858Z,23.83
2018-05-09T07:55:58.879Z,23.74
2018-05-09T07:56:58.899Z,23.47
2018-05-09T07:57:58.927Z,22.49
2018-05-09T07:58:58.950Z,22.00
2018-05-09T07:59:58.977Z,21.80
2018-05-09T08:00:59.599Z,21.80
2018-05-09T08:01:59.106Z,22.39
2018-05-09T08:02:59.038Z,21.50
2018-05-09T08:03:59.065Z,21.70
2018-05-09T08:04:59.081Z,22.58
2018-05-09T08:05:59.181Z,23.05
2018-05-09T08:06:59.129Z,23.06
2018-05-09T08:07:59.150Z,23.17
2018-05-09T08:08:59.176Z,22.50
2018-05-09T08:09:59.205Z,21.72
2018-05-09T08:10:59.232Z,21.04
2018-05-09T08:11:59.323Z,21.45
2018-05-09T08:12:59.336Z,21.42
2018-05-09T08:13:59.403Z,21.69
2018-05-09T08:14:59.371Z,22.67
2018-05-09T08:15:59.418Z,22.46
2018-05-09T08:16:59.415Z,21.98
2018-05-09T08:17:59.394Z,21.10
2018-05-09T08:18:59.427Z,21.10
2018-05-09T08:19:59.498Z,21.11
2018-05-09T08:20:59.493Z,21.01
2018-05-09T08:21:59.521Z,20.65
2018-05-09T08:22:59.545Z,20.55
2018-05-09T08:23:59.611Z,20.47
2018-05-09T08:24:59.565Z,20.65
2018-05-09T08:25:59.589Z,21.24
2018-05-09T08:26:59.676Z,21.24
2018-05-09T08:27:59.653Z,21.53
2018-05-09T08:28:59.668Z,21.64
2018-05-09T08:29:59.697Z,21.24
2018-05-09T08:30:59.711Z,21.82
2018-05-09T08:31:59.722Z,21.44
2018-05-09T08:32:59.843Z,21.44
2018-05-09T08:33:59.774Z,20.46
2018-05-09T08:34:59.811Z,20.57
2018-05-09T08:35:59.872Z,20.26
2018-05-09T08:36:59.870Z,20.56
2018-05-09T08:37:59.863Z,20.37
2018-05-09T08:38:59.917Z,20.06
2018-05-09T08:39:59.922Z,20.47
2018-05-09T08:40:59.936Z,20.36
2018-05-09T08:41:59.949Z,20.26
2018-05-09T08:42:59.989Z,20.92
2018-05-09T08:44:00.152Z,20.83
2018-05-09T08:45:00.027Z,21.89
2018-05-09T08:46:00.048Z,22.36
2018-05-09T08:47:04.545Z,22.56
2018-05-09T08:48:00.097Z,22.96
2018-05-09T08:49:00.125Z,22.78
2018-05-09T08:50:00.152Z,22.58
2018-05-09T08:51:00.171Z,22.30
2018-05-09T08:52:00.227Z,21.70
2018-05-09T08:53:00.263Z,22.00
2018-05-09T08:54:00.251Z,21.60
2018-05-09T08:55:00.265Z,22.38
2018-05-09T08:56:00.296Z,21.70
2018-05-09T08:57:00.319Z,21.62
2018-05-09T08:58:00.343Z,22.01
2018-05-09T08:59:00.377Z,21.59
2018-05-09T09:00:00.387Z,22.39
2018-05-09T09:01:00.424Z,21.79
2018-05-09T09:02:00.433Z,21.11
2018-05-09T09:03:00.463Z,20.73
2018-05-09T09:04:00.490Z,20.92
2018-05-09T09:05:00.508Z,21.02
2018-05-09T09:06:00.540Z,21.32
2018-05-09T09:07:00.561Z,20.62
2018-05-09T09:08:00.581Z,20.62
2018-05-09T09:09:00.622Z,21.68
2018-05-09T09:10:00.626Z,22.35
2018-05-09T09:11:00.668Z,22.45
2018-05-09T09:12:00.962Z,22.75
2018-05-09T09:13:00.799Z,21.88
2018-05-09T09:14:00.728Z,20.91
2018-05-09T09:15:00.753Z,21.21
2018-05-09T09:16:00.798Z,21.69
2018-05-09T09:17:00.804Z,20.92
2018-05-09T09:18:00.821Z,20.92
2018-05-09T09:19:00.858Z,20.23
2018-05-09T09:20:00.868Z,20.34
2018-05-09T09:21:00.893Z,20.33
2018-05-09T09:22:00.937Z,20.73
2018-05-09T09:23:00.981Z,20.72
2018-05-09T09:24:00.981Z,21.11
2018-05-09T09:25:00.998Z,21.10
2018-05-09T09:26:01.019Z,21.21
2018-05-09T09:27:01.040Z,20.62
2018-05-09T09:28:01.080Z,20.79
2018-05-09T09:29:01.103Z,21.39
2018-05-09T09:30:01.140Z,21.58
2018-05-09T09:31:01.138Z,21.39
2018-05-09T09:32:01.164Z,20.90
2018-05-09T09:33:01.248Z,20.21
2018-05-09T09:34:01.232Z,21.29
2018-05-09T09:35:01.262Z,21.09
2018-05-09T09:36:03.119Z,20.78
2018-05-09T09:37:01.282Z,20.40
2018-05-09T09:38:01.312Z,19.72
2018-05-09T09:39:01.338Z,19.62
2018-05-09T09:40:01.369Z,19.42
2018-05-09T09:41:01.410Z,18.65
2018-05-09T09:42:01.407Z,19.34
2018-05-09T09:43:01.461Z,20.33
2018-05-09T09:44:01.449Z,19.74
2018-05-09T09:45:01.492Z,19.44
2018-05-09T09:46:01.512Z,19.26
2018-05-09T09:47:01.535Z,19.24
2018-05-09T09:48:01.551Z,20.23
2018-05-09T09:49:01.581Z,18.63
2018-05-09T09:50:01.600Z,18.93
2018-05-09T09:51:01.666Z,20.38
2018-05-09T09:52:01.654Z,20.18
2018-05-09T09:53:01.696Z,19.29
2018-05-09T09:54:01.697Z,19.58
2018-05-09T09:55:01.726Z,19.69
2018-05-09T09:56:01.742Z,18.43
2018-05-09T09:57:01.775Z,18.73
2018-05-09T09:58:01.785Z,19.04
2018-05-09T09:59:01.825Z,18.26
2018-05-09T10:00:01.852Z,17.95
2018-05-09T10:01:01.862Z,18.44
2018-05-09T10:02:01.891Z,19.04
2018-05-09T10:03:01.918Z,18.35
2018-05-09T10:04:01.938Z,18.06
2018-05-09T10:05:01.977Z,18.07
2018-05-09T10:06:01.998Z,16.98
2018-05-09T10:07:02.011Z,17.68
2018-05-09T10:08:02.034Z,17.66
2018-05-09T10:09:02.053Z,17.95
2018-05-09T10:10:02.092Z,18.65
2018-05-09T10:11:02.117Z,18.15
2018-05-09T10:12:02.145Z,19.42
2018-05-09T10:13:02.155Z,20.30
2018-05-09T10:14:02.180Z,20.09
2018-05-09T10:15:02.208Z,20.48
2018-05-09T10:16:02.243Z,20.09
2018-05-09T10:17:02.248Z,20.18
2018-05-09T10:18:02.276Z,20.48
2018-05-09T10:19:02.292Z,18.90
2018-05-09T10:20:02.328Z,18.70
2018-05-09T10:21:02.334Z,18.59
2018-05-09T10:22:02.364Z,18.59
2018-05-09T10:23:02.387Z,18.77
2018-05-09T10:24:02.411Z,18.66
2018-05-09T10:25:02.452Z,19.34
2018-05-09T10:26:02.451Z,19.73
2018-05-09T10:27:02.478Z,20.23
2018-05-09T10:28:02.512Z,20.72
2018-05-09T10:29:02.524Z,20.44
2018-05-09T10:30:02.561Z,19.96
2018-05-09T10:31:02.567Z,18.49
2018-05-09T10:32:02.677Z,18.59
2018-05-09T10:33:02.627Z,19.67
2018-05-09T10:34:02.652Z,21.22
2018-05-09T10:35:02.672Z,22.56
2018-05-09T10:36:02.697Z,22.05
2018-05-09T10:37:02.717Z,22.73
2018-05-09T10:38:02.736Z,22.25
2018-05-09T10:39:02.748Z,22.26
2018-05-09T10:40:02.827Z,22.66
2018-05-09T10:41:02.820Z,21.67
2018-05-09T10:42:02.831Z,21.97
2018-05-09T10:43:03.572Z,22.44
2018-05-09T10:44:02.861Z,22.35
2018-05-09T10:45:02.887Z,22.35
2018-05-09T10:46:02.911Z,22.08
2018-05-09T10:47:02.946Z,22.37
2018-05-09T10:48:02.949Z,22.48
2018-05-09T10:49:02.987Z,22.58
2018-05-09T10:50:03.067Z,22.16
2018-05-09T10:51:03.020Z,22.75
2018-05-09T10:52:03.038Z,22.95
2018-05-09T10:53:03.067Z,22.66
2018-05-09T10:54:03.135Z,22.56
2018-05-09T10:55:03.131Z,22.56
2018-05-09T10:56:03.138Z,22.37
2018-05-09T10:57:03.152Z,22.19
2018-05-09T10:58:03.174Z,21.89
2018-05-09T10:59:03.226Z,22.37
2018-05-09T11:00:03.215Z,22.38
2018-05-09T11:01:03.405Z,22.27
2018-05-09T11:02:03.290Z,22.38
2018-05-09T11:03:03.276Z,22.67
2018-05-09T11:04:03.299Z,22.19
2018-05-09T11:05:03.329Z,22.38
2018-05-09T11:06:03.333Z,22.56
2018-05-09T11:07:03.363Z,22.75
2018-05-09T11:08:03.384Z,23.33
2018-05-09T11:09:03.460Z,23.23
2018-05-09T11:10:03.437Z,23.81
2018-05-09T11:11:03.447Z,24.10
2018-05-09T11:12:03.463Z,23.90
2018-05-09T11:13:03.483Z,23.99
2018-05-09T11:14:03.509Z,23.99
2018-05-09T11:15:03.523Z,23.99
2018-05-09T11:16:03.559Z,23.91
2018-05-09T11:17:03.573Z,23.52
2018-05-09T11:18:03.591Z,23.02
2018-05-09T11:19:03.609Z,23.91
2018-05-09T11:20:03.620Z,24.09
2018-05-09T11:21:03.642Z,24.75
2018-05-09T11:22:03.658Z,24.85
2018-05-09T11:23:03.727Z,24.95
2018-05-09T11:24:03.734Z,25.43
2018-05-09T11:25:03.741Z,25.61
2018-05-09T11:26:03.754Z,25.52
2018-05-09T11:27:03.775Z,24.93
2018-05-09T11:28:03.784Z,25.05
2018-05-09T11:29:03.805Z,24.93
2018-05-09T11:30:03.826Z,25.42
2018-05-09T11:31:03.848Z,26.10
2018-05-09T11:32:04.591Z,26.20
2018-05-09T11:33:03.928Z,26.00
2018-05-09T11:34:03.903Z,25.61
2018-05-09T11:35:03.926Z,26.39
2018-05-09T11:36:03.935Z,25.52
2018-05-09T11:37:03.958Z,24.95
2018-05-09T11:38:03.966Z,25.15
2018-05-09T11:39:03.996Z,24.36
2018-05-09T11:40:04.003Z,24.75
2018-05-09T11:41:04.044Z,24.36
2018-05-09T11:42:04.054Z,24.16
2018-05-09T11:43:04.080Z,24.46
2018-05-09T11:44:04.093Z,25.05
2018-05-09T11:45:04.100Z,25.33
2018-05-09T11:46:04.123Z,25.71
2018-05-09T11:47:04.129Z,26.49
2018-05-09T11:48:04.184Z,26.10
2018-05-09T11:49:04.176Z,26.48
2018-05-09T11:50:04.185Z,26.48
2018-05-09T11:51:04.215Z,26.57
2018-05-09T11:52:04.240Z,26.38
2018-05-09T11:53:04.341Z,26.37
2018-05-09T11:54:04.258Z,27.34
2018-05-09T11:55:04.273Z,27.13
2018-05-09T11:56:04.297Z,27.90
2018-05-09T11:57:04.303Z,27.98
2018-05-09T11:58:04.323Z,28.28
2018-05-09T11:59:04.345Z,28.08
2018-05-09T12:00:04.379Z,27.89
2018-05-09T12:01:04.382Z,27.90
2018-05-09T12:02:04.402Z,27.80
2018-05-09T12:03:04.426Z,28.00
2018-05-09T12:04:04.435Z,28.38
2018-05-09T12:05:04.451Z,28.75
2018-05-09T12:06:04.455Z,29.04
2018-05-09T12:07:04.462Z,28.55
2018-05-09T12:08:04.489Z,28.07
2018-05-09T12:09:04.507Z,28.65
2018-05-09T12:10:04.509Z,28.38
2018-05-09T12:11:04.534Z,27.89
2018-05-09T12:12:04.536Z,27.89
2018-05-09T12:13:04.563Z,27.80
2018-05-09T12:14:04.566Z,27.70
2018-05-09T12:15:04.594Z,27.41
2018-05-09T12:16:04.600Z,27.80
2018-05-09T12:17:04.635Z,27.72
2018-05-09T12:18:04.662Z,26.35
2018-05-09T12:19:04.639Z,26.54
2018-05-09T12:20:04.670Z,26.25
2018-05-09T12:21:04.675Z,26.45
2018-05-09T12:22:04.680Z,26.45
2018-05-09T12:23:04.709Z,26.45
2018-05-09T12:24:04.710Z,26.35
2018-05-09T12:25:04.723Z,26.45
2018-05-09T12:26:04.749Z,26.64
2018-05-09T12:27:04.758Z,26.64
2018-05-09T12:28:04.781Z,26.56
2018-05-09T12:29:04.787Z,26.27
2018-05-09T12:30:04.799Z,26.54
2018-05-09T12:31:04.828Z,26.45
2018-05-09T12:32:04.831Z,27.61
2018-05-09T12:33:04.842Z,28.08
2018-05-09T12:34:04.854Z,27.58
2018-05-09T12:35:04.871Z,27.97
2018-05-09T12:36:05.700Z,27.97
2018-05-09T12:37:04.896Z,27.87
2018-05-09T12:38:04.988Z,27.97
2018-05-09T12:39:04.925Z,27.98
2018-05-09T12:40:04.939Z,28.08
2018-05-09T12:41:04.949Z,27.48
2018-05-09T12:42:04.953Z,27.50
2018-05-09T12:43:04.979Z,27.40
2018-05-09T12:44:04.981Z,27.59
2018-05-09T12:45:04.999Z,27.30
2018-05-09T12:46:05.023Z,27.40
2018-05-09T12:47:05.035Z,27.89
2018-05-09T12:48:05.051Z,28.38
2018-05-09T12:49:05.068Z,28.26
2018-05-09T12:50:05.085Z,28.36
2018-05-09T12:51:05.079Z,28.65
2018-05-09T12:52:05.100Z,29.04
2018-05-09T12:53:05.107Z,28.85